Flight Track Log - Related Links

Times and Time Zones

All times are in EDT time to prevent confusion due to time zone crossing. See the F-HPJG flight status page for this flight to view local times or setup timezone preferences in your user account.

Time Position Orientation Groundspeed Altitude Reporting Facility
EDT Latitude Longitude Course Direction KTS MPH feet Rate Location/Type
Thu 01:15:20 PM -26.1280 28.2360 118° Southeast 2 2  Level FlightAware ADS-B
Thu 01:16:03 PM -26.1280 28.2350 270° West 2 2 440 Level FlightAware ADS-B
Thu 01:18:00 PM -25.8848 28.1531 343° North  Level Estimated
Thu 01:19:00 PM -25.7600 28.1112 343° North  Level Estimated
Thu 01:20:00 PM -25.6353 28.0694 343° North  Level Estimated
Thu 01:20:29 PM -26.1280 28.2360 343° North 7 8  Level FlightAware ADS-B
Thu 01:20:59 PM -26.1280 28.2370 90° East 8 9 768 Level FlightAware ADS-B
Thu 01:21:38 PM -26.1270 28.2380 42° Northeast 13 15 828 Level FlightAware ADS-B
Thu 01:21:53 PM -26.1260 28.2390 42° Northeast 14 16 922 Level FlightAware ADS-B
Thu 01:22:38 PM -26.1230 28.2400 17° North 16 18 964 Level FlightAware ADS-B
Thu 01:23:03 PM -26.1210 28.2400 360° North 18 21 1,116 Level FlightAware ADS-B
Thu 01:23:13 PM -26.1200 28.2400 360° North 19 22 1,223 Level FlightAware ADS-B
Thu 01:23:43 PM -26.1180 28.2410 24° Northeast 17 20 1,272 Level FlightAware ADS-B
Thu 01:24:13 PM -26.1150 28.2420 17° North 18 21 1,445 Level FlightAware ADS-B
Thu 01:24:43 PM -26.1130 28.2430 24° Northeast 18 21 1,674 Level FlightAware ADS-B
Thu 01:25:08 PM -26.1110 28.2430 360° North 16 18 1,988 Level FlightAware ADS-B
Thu 01:25:28 PM -26.1090 28.2440 24° Northeast 9 10 2,356 Level FlightAware ADS-B
Thu 01:25:58 PM -26.1090 28.2450 90° East 9 10 2,765 Level FlightAware ADS-B
Thu 01:26:21 PM -26.1080 28.2460 42° Northeast 7 8 3,741 Level FlightAware ADS-B
Thu 01:27:07 PM -26.1100 28.2450 204° Southwest 39 45 5,129 Level FlightAware ADS-B
Thu 01:27:23 PM -26.1150 28.2440 190° South 90 104 5,300 7,067 Climbing FlightAware ADS-B
Thu 01:27:52 PM -26.1320 28.2390 195° South 173 199 5,300 612 Level FlightAware ADS-B
Thu 01:28:12 PM -26.1480 28.2340 196° South 172 198 5,800 1,680 Climbing FlightAware ADS-B
Thu 01:28:42 PM -26.1720 28.2270 195° South 172 198 6,700 1,729 Climbing FlightAware ADS-B
Thu 01:29:11 PM -26.1950 28.2200 195° South 172 198 7,500 1,322 Climbing FlightAware ADS-B
Thu 01:29:41 PM -26.2190 28.2110 199° South 188 216 8,000 842 Climbing FlightAware ADS-B
Thu 01:30:08 PM -26.2420 28.2030 197° South 222 255 8,300 737 Climbing FlightAware ADS-B
Thu 01:30:38 PM -26.2740 28.1930 196° South 261 300 8,700 1,000 Climbing FlightAware ADS-B
Thu 01:31:08 PM -26.3100 28.1820 195° South 293 337 9,300 1,745 Climbing FlightAware ADS-B
Thu 01:31:33 PM -26.3420 28.1640 207° Southwest 287 330 10,300 2,100 Climbing FlightAware ADS-B
Thu 01:31:48 PM -26.3520 28.1480 235° Southwest 287 330 10,700 2,200 Climbing FlightAware ADS-B
Thu 01:32:03 PM -26.3570 28.1240 257° West 283 326 11,400 3,450 Climbing FlightAware ADS-B
Thu 01:32:28 PM -26.3440 28.0840 290° West 269 310 13,000 3,073 Climbing FlightAware ADS-B
Thu 01:32:44 PM -26.3280 28.0710 324° Northwest 273 314 13,500 1,935 Climbing FlightAware ADS-B
Thu 01:32:59 PM -26.3090 28.0660 347° North 294 338 14,000 1,636 Climbing FlightAware ADS-B
Thu 01:33:39 PM -26.2530 28.0540 349° North 310 357 15,000 1,326 Climbing FlightAware ADS-B
Thu 01:34:34 PM -26.1690 28.0340 348° North 358 412 16,100 1,011 Climbing FlightAware ADS-B
Thu 01:35:14 PM -26.1010 28.0180 348° North 396 456 16,600 847 Climbing FlightAware ADS-B
Thu 01:35:59 PM -26.0150 27.9980 348° North 431 496 17,300 1,333 Climbing FlightAware ADS-B
Thu 01:36:44 PM -25.9260 27.9780 349° North 430 495 18,600 2,207 Climbing FlightAware ADS-B
Thu 01:37:26 PM -25.8490 27.9600 348° North 424 488 20,500 2,541 Climbing FlightAware ADS-B
Thu 01:38:09 PM -25.7610 27.9400 348° North 412 474 22,200 2,024 Climbing FlightAware ADS-B
Thu 01:38:49 PM -25.6860 27.9220 348° North 427 491 23,300 1,575 Climbing FlightAware ADS-B
Thu 01:39:29 PM -25.6070 27.9040 348° North 426 490 24,300 1,500 Climbing FlightAware ADS-B
Thu 01:40:09 PM -25.5260 27.8900 351° North 450 518 25,300 1,429 Climbing FlightAware ADS-B
Thu 01:40:53 PM -25.4330 27.8850 357° North 451 519 26,300 1,200 Climbing FlightAware ADS-B
Thu 01:41:34 PM -25.3480 27.8790 356° North 467 537 27,000 1,050 Climbing FlightAware ADS-B
Thu 01:42:13 PM -25.2690 27.8740 357° North 468 539 27,700 1,091 Climbing FlightAware ADS-B
Thu 01:43:02 PM -25.1490 27.8670 357° North 488 562 28,600 1,146 Climbing FlightAware ADS-B
Thu 01:43:42 PM -25.0590 27.8610 357° North 490 564 29,400 960 Climbing FlightAware ADS-B
Thu 01:44:17 PM -24.9780 27.8550 356° North 500 575 29,800 1,116 Climbing FlightAware ADS-B
Thu 01:47:00 PM -24.6389 27.7431 343° North  Level Estimated
Thu 01:48:00 PM -24.5140 27.7021 343° North  Level Estimated
Thu 01:48:00 PM -24.5180 27.8010 343° North 471 542 34,200  Level FlightAware ADS-B
Thu 01:48:35 PM -24.3960 27.7850 353° North 472 543 35,000 623 Climbing FlightAware ADS-B
Thu 01:49:17 PM -24.3000 27.7720 353° North 480 552 35,000  Level FlightAware ADS-B
Thu 01:49:58 PM -24.2110 27.7610 354° North 478 550 35,000  Level FlightAware ADS-B
Thu 01:50:42 PM -24.1180 27.7480 353° North 478 550 35,000  Level FlightAware ADS-B
Thu 01:51:42 PM -23.9860 27.7310 353° North 480 552 35,000  Level FlightAware ADS-B
Thu 01:52:22 PM -23.9000 27.7190 353° North 480 552 35,000  Level FlightAware ADS-B
Thu 01:53:00 PM -23.8290 27.7100 353° North 480 552 35,000  Level FlightAware ADS-B
Thu 01:54:03 PM -23.7040 27.6930 353° North 480 552 35,000  Level FlightAware ADS-B
Thu 01:54:40 PM -23.6150 27.6810 353° North 480 552 35,000  Level FlightAware ADS-B
Thu 01:55:35 PM -23.4910 27.6650 353° North 481 554 35,000  Level FlightAware ADS-B
Thu 01:56:20 PM -23.3900 27.6520 353° North 482 555 35,000  Level FlightAware ADS-B
Thu 01:57:05 PM -23.2910 27.6390 353° North 482 555 35,000  Level FlightAware ADS-B
Thu 01:57:45 PM -23.2050 27.6270 353° North 482 555 35,000  Level FlightAware ADS-B
Thu 01:58:25 PM -23.1180 27.6200 356° North 485 558 35,000  Level FlightAware ADS-B
Thu 01:59:10 PM -23.0170 27.6140 357° North 483 556 35,000  Level FlightAware ADS-B
Thu 01:59:50 PM -22.9250 27.6070 356° North 483 556 35,000  Level FlightAware ADS-B
Thu 02:02:00 PM -22.6545 27.5191 343° North  Level Estimated
Thu 02:03:00 PM -22.5297 27.4787 343° North  Level Estimated
Thu 02:03:13 PM -22.5670 27.5790 343° North 483 556 35,000  Level FlightAware ADS-B
Thu 02:03:38 PM -22.5200 27.5760 357° North 483 556 35,000  Level FlightAware ADS-B
Thu 02:04:26 PM -22.4290 27.5690 356° North 483 556 35,000  Level FlightAware ADS-B
Thu 02:05:03 PM -22.3590 27.5640 356° North 483 556 35,000  Level FlightAware ADS-B
Thu 02:06:14 PM -22.2240 27.5530 356° North 483 556 35,000  Level FlightAware ADS-B
Thu 02:07:00 PM -22.1370 27.5470 356° North 483 556 35,000  Level FlightAware ADS-B
Thu 02:07:36 PM -22.0690 27.5420 356° North 483 556 35,000  Level FlightAware ADS-B
Thu 02:08:24 PM -21.9780 27.5350 356° North 483 556 35,000  Level FlightAware ADS-B
Thu 02:09:04 PM -21.9020 27.5290 356° North 483 556 35,000  Level FlightAware ADS-B
Thu 02:09:40 PM -21.8340 27.5240 356° North 483 556 35,000 12 Level FlightAware ADS-B
Thu 02:12:00 PM -21.5428 27.4300 343° North  Level Estimated
Thu 02:13:00 PM -21.4179 27.3898 343° North  Level Estimated
Thu 02:14:00 PM -21.2931 27.3496 343° North  Level Estimated
Thu 02:15:00 PM -21.1674 27.3093 343° North  Level Estimated
Thu 02:16:00 PM -21.0417 27.2691 343° North  Level Estimated
Thu 02:17:00 PM -20.9160 27.2289 343° North  Level Estimated
Thu 02:18:00 PM -20.7903 27.1888 343° North  Level Estimated
Thu 02:19:00 PM -20.6646 27.1487 343° North  Level Estimated
Thu 02:20:00 PM -20.5389 27.1087 343° North  Level Estimated
Thu 02:21:00 PM -20.4131 27.0688 343° North  Level Estimated
Thu 02:22:00 PM -20.2874 27.0290 343° North  Level Estimated
Thu 02:23:00 PM -20.1616 26.9892 343° North  Level Estimated
Thu 02:24:00 PM -20.0359 26.9495 343° North  Level Estimated
Thu 02:25:00 PM -19.9101 26.9098 343° North  Level Estimated
Thu 02:26:00 PM -19.7843 26.8702 343° North  Level Estimated
Thu 02:27:00 PM -19.6585 26.8307 344° North  Level Estimated
Thu 02:28:00 PM -19.5327 26.7912 344° North  Level Estimated
Thu 02:29:00 PM -19.4069 26.7518 344° North  Level Estimated
Thu 02:30:00 PM -19.2811 26.7124 344° North  Level Estimated
Thu 02:31:00 PM -19.1553 26.6731 344° North  Level Estimated
Thu 02:32:00 PM -19.0294 26.6339 344° North  Level Estimated
Thu 02:33:00 PM -18.9036 26.5947 344° North  Level Estimated
Thu 02:34:00 PM -18.7777 26.5556 344° North  Level Estimated
Thu 02:35:00 PM -18.6519 26.5166 344° North  Level Estimated
Thu 02:36:00 PM -18.5260 26.4776 344° North  Level Estimated
Thu 02:37:00 PM -18.4001 26.4386 344° North  Level Estimated
Thu 02:38:00 PM -18.2743 26.3998 344° North  Level Estimated
Thu 02:39:00 PM -18.1484 26.3609 344° North  Level Estimated
Thu 02:40:00 PM -18.0225 26.3222 344° North  Level Estimated
Thu 02:41:00 PM -17.8966 26.2834 344° North  Level Estimated
Thu 02:42:00 PM -17.7707 26.2448 344° North  Level Estimated
Thu 02:43:00 PM -17.6447 26.2062 344° North  Level Estimated
Thu 02:44:00 PM -17.5188 26.1676 344° North  Level Estimated
Thu 02:45:00 PM -17.3929 26.1291 344° North  Level Estimated
Thu 02:46:00 PM -17.2669 26.0907 344° North  Level Estimated
Thu 02:47:00 PM -17.1410 26.0523 344° North  Level Estimated
Thu 02:48:00 PM -17.0150 26.0140 344° North  Level Estimated
Thu 02:49:00 PM -16.8890 25.9757 344° North  Level Estimated
Thu 02:50:00 PM -16.7631 25.9374 344° North  Level Estimated
Thu 02:51:00 PM -16.6371 25.8992 344° North  Level Estimated
Thu 02:52:00 PM -16.5111 25.8611 344° North  Level Estimated
Thu 02:53:00 PM -16.3851 25.8230 344° North  Level Estimated
Thu 02:54:00 PM -16.2591 25.7850 344° North  Level Estimated
Thu 02:55:00 PM -16.1331 25.7470 344° North  Level Estimated
Thu 02:56:00 PM -16.0071 25.7090 344° North  Level Estimated
Thu 02:57:00 PM -15.8811 25.6712 344° North  Level Estimated
Thu 02:58:00 PM -15.7550 25.6333 344° North  Level Estimated
Thu 02:59:00 PM -15.6290 25.5955 344° North  Level Estimated
Thu 03:00:00 PM -15.5030 25.5578 344° North  Level Estimated
Thu 03:01:00 PM -15.3769 25.5200 344° North  Level Estimated
Thu 03:02:00 PM -15.2509 25.4824 344° North  Level Estimated
Thu 03:03:00 PM -15.1248 25.4448 344° North  Level Estimated
Thu 03:04:00 PM -14.9988 25.4072 344° North  Level Estimated
Thu 03:05:00 PM -14.8727 25.3697 344° North  Level Estimated
Thu 03:06:00 PM -14.7466 25.3322 344° North  Level Estimated
Thu 03:07:00 PM -14.6205 25.2947 344° North  Level Estimated
Thu 03:08:00 PM -14.4944 25.2573 344° North  Level Estimated
Thu 03:09:00 PM -14.3684 25.2200 344° North  Level Estimated
Thu 03:10:00 PM -14.2423 25.1827 344° North  Level Estimated
Thu 03:11:00 PM -14.1161 25.1454 344° North  Level Estimated
Thu 03:12:00 PM -13.9900 25.1082 344° North  Level Estimated
Thu 03:13:00 PM -13.8639 25.0710 344° North  Level Estimated
Thu 03:14:00 PM -13.7378 25.0338 344° North  Level Estimated
Thu 03:15:00 PM -13.6149 24.9977 344° North  Level Estimated
Thu 03:16:00 PM -13.4921 24.9616 344° North  Level Estimated
Thu 03:17:00 PM -13.3692 24.9255 344° North  Level Estimated
Thu 03:18:00 PM -13.2464 24.8895 344° North  Level Estimated
Thu 03:19:00 PM -13.1235 24.8535 344° North  Level Estimated
Thu 03:20:00 PM -13.0006 24.8175 344° North  Level Estimated
Thu 03:21:00 PM -12.8778 24.7816 344° North  Level Estimated
Thu 03:22:00 PM -12.7549 24.7457 344° North  Level Estimated
Thu 03:23:00 PM -12.6320 24.7099 344° North  Level Estimated
Thu 03:24:00 PM -12.5091 24.6741 344° North  Level Estimated
Thu 03:25:00 PM -12.3862 24.6383 344° North  Level Estimated
Thu 03:26:00 PM -12.2633 24.6025 344° North  Level Estimated
Thu 03:27:00 PM -12.1404 24.5668 344° North  Level Estimated
Thu 03:28:00 PM -12.0175 24.5311 344° North  Level Estimated
Thu 03:29:00 PM -11.8946 24.4955 344° North  Level Estimated
Thu 03:30:00 PM -11.7716 24.4599 344° North  Level Estimated
Thu 03:31:00 PM -11.6487 24.4243 344° North  Level Estimated
Thu 03:32:00 PM -11.5258 24.3887 344° North  Level Estimated
Thu 03:33:00 PM -11.4029 24.3532 344° North  Level Estimated
Thu 03:34:00 PM -11.2799 24.3177 344° North  Level Estimated
Thu 03:35:00 PM -11.1570 24.2822 344° North  Level Estimated
Thu 03:36:00 PM -11.0340 24.2468 344° North  Level Estimated
Thu 03:37:00 PM -10.9111 24.2114 344° North  Level Estimated
Thu 03:38:00 PM -10.7881 24.1760 344° North  Level Estimated
Thu 03:39:00 PM -10.6652 24.1407 344° North  Level Estimated
Thu 03:40:00 PM -10.5422 24.1054 344° North  Level Estimated
Thu 03:41:00 PM -10.4192 24.0701 344° North  Level Estimated
Thu 03:42:00 PM -10.2963 24.0348 344° North  Level Estimated
Thu 03:43:00 PM -10.1733 23.9996 344° North  Level Estimated
Thu 03:44:00 PM -10.0503 23.9644 344° North  Level Estimated
Thu 03:45:00 PM -9.9273 23.9292 344° North  Level Estimated
Thu 03:46:00 PM -9.8043 23.8940 344° North  Level Estimated
Thu 03:47:00 PM -9.6814 23.8589 344° North  Level Estimated
Thu 03:48:00 PM -9.5584 23.8238 344° North  Level Estimated
Thu 03:49:00 PM -9.4354 23.7887 344° North  Level Estimated
Thu 03:50:00 PM -9.3124 23.7537 344° North  Level Estimated
Thu 03:51:00 PM -9.1894 23.7186 344° North  Level Estimated
Thu 03:52:00 PM -9.0664 23.6836 344° North  Level Estimated
Thu 03:53:00 PM -8.9433 23.6487 344° North  Level Estimated
Thu 03:54:00 PM -8.8203 23.6137 344° North  Level Estimated
Thu 03:55:00 PM -8.6973 23.5788 344° North  Level Estimated
Thu 03:56:00 PM -8.5743 23.5439 344° North  Level Estimated
Thu 03:57:00 PM -8.4513 23.5090 344° North  Level Estimated
Thu 03:58:00 PM -8.3283 23.4741 344° North  Level Estimated
Thu 03:59:00 PM -8.2052 23.4393 344° North  Level Estimated
Thu 04:00:00 PM -8.0822 23.4044 344° North  Level Estimated
Thu 04:01:00 PM -7.9592 23.3696 344° North  Level Estimated
Thu 04:02:00 PM -7.8361 23.3349 344° North  Level Estimated
Thu 04:03:00 PM -7.7131 23.3001 344° North  Level Estimated
Thu 04:04:00 PM -7.5901 23.2654 344° North  Level Estimated
Thu 04:05:00 PM -7.4670 23.2306 344° North  Level Estimated
Thu 04:06:00 PM -7.3440 23.1959 344° North  Level Estimated
Thu 04:07:00 PM -7.2209 23.1613 344° North  Level Estimated
Thu 04:08:00 PM -7.0979 23.1266 344° North  Level Estimated
Thu 04:09:00 PM -6.9748 23.0920 344° North  Level Estimated
Thu 04:10:00 PM -6.8517 23.0574 344° North  Level Estimated
Thu 04:11:00 PM -6.7287 23.0227 344° North  Level Estimated
Thu 04:12:00 PM -6.6056 22.9881 344° North  Level Estimated
Thu 04:13:00 PM -6.4826 22.9536 344° North  Level Estimated
Thu 04:14:00 PM -6.3595 22.9190 344° North  Level Estimated
Thu 04:15:00 PM -6.2364 22.8845 344° North  Level Estimated
Thu 04:16:00 PM -6.1133 22.8500 344° North  Level Estimated
Thu 04:17:00 PM -5.9903 22.8155 344° North  Level Estimated
Thu 04:18:00 PM -5.8672 22.7810 344° North  Level Estimated
Thu 04:19:00 PM -5.7441 22.7465 344° North  Level Estimated
Thu 04:20:00 PM -5.6210 22.7120 344° North  Level Estimated
Thu 04:21:00 PM -5.4980 22.6776 344° North  Level Estimated
Thu 04:22:00 PM -5.3749 22.6432 344° North  Level Estimated
Thu 04:23:00 PM -5.2518 22.6087 344° North  Level Estimated
Thu 04:24:00 PM -5.1287 22.5743 344° North  Level Estimated
Thu 04:25:00 PM -5.0056 22.5399 344° North  Level Estimated
Thu 04:26:00 PM -4.8825 22.5056 344° North  Level Estimated
Thu 04:27:00 PM -4.7594 22.4712 344° North  Level Estimated
Thu 04:28:00 PM -4.6363 22.4369 344° North  Level Estimated
Thu 04:29:00 PM -4.5132 22.4025 344° North  Level Estimated
Thu 04:30:00 PM -4.3901 22.3682 344° North  Level Estimated
Thu 04:31:00 PM -4.2670 22.3339 344° North  Level Estimated
Thu 04:32:00 PM -4.1439 22.2996 344° North  Level Estimated
Thu 04:33:00 PM -4.0208 22.2653 344° North  Level Estimated
Thu 04:34:00 PM -3.8977 22.2310 344° North  Level Estimated
Thu 04:35:00 PM -3.7746 22.1967 344° North  Level Estimated
Thu 04:36:00 PM -3.6515 22.1624 344° North  Level Estimated
Thu 04:37:00 PM -3.5284 22.1282 344° North  Level Estimated
Thu 04:38:00 PM -3.4053 22.0939 344° North  Level Estimated
Thu 04:39:00 PM -3.2822 22.0597 344° North  Level Estimated
Thu 04:40:00 PM -3.1591 22.0254 344° North  Level Estimated
Thu 04:41:00 PM -3.0359 21.9912 344° North  Level Estimated
Thu 04:42:00 PM -2.9128 21.9570 344° North  Level Estimated
Thu 04:43:00 PM -2.7897 21.9228 344° North  Level Estimated
Thu 04:44:00 PM -2.6666 21.8886 344° North  Level Estimated
Thu 04:45:00 PM -2.5435 21.8544 344° North  Level Estimated
Thu 04:46:00 PM -2.4204 21.8202 344° North  Level Estimated
Thu 04:47:00 PM -2.2972 21.7860 344° North  Level Estimated
Thu 04:48:00 PM -2.1741 21.7519 344° North  Level Estimated
Thu 04:49:00 PM -2.0510 21.7177 344° North  Level Estimated
Thu 04:50:00 PM -1.9279 21.6835 345° North  Level Estimated
Thu 04:51:00 PM -1.8048 21.6494 345° North  Level Estimated
Thu 04:52:00 PM -1.6816 21.6152 345° North  Level Estimated
Thu 04:53:00 PM -1.5585 21.5811 345° North  Level Estimated
Thu 04:54:00 PM -1.4354 21.5469 345° North  Level Estimated
Thu 04:55:00 PM -1.3123 21.5128 345° North  Level Estimated
Thu 04:56:00 PM -1.1891 21.4786 345° North  Level Estimated
Thu 04:57:00 PM -1.0660 21.4445 345° North  Level Estimated
Thu 04:58:00 PM -0.9429 21.4104 345° North  Level Estimated
Thu 04:59:00 PM -0.8198 21.3762 345° North  Level Estimated
Thu 05:00:00 PM -0.6966 21.3421 345° North  Level Estimated
Thu 05:01:00 PM -0.5735 21.3080 345° North  Level Estimated
Thu 05:02:00 PM -0.4504 21.2739 345° North  Level Estimated
Thu 05:03:00 PM -0.3272 21.2397 345° North  Level Estimated
Thu 05:04:00 PM -0.2041 21.2056 345° North  Level Estimated
Thu 05:05:00 PM -0.0810 21.1715 345° North  Level Estimated
Thu 05:06:00 PM 0.0421 21.1374 345° North  Level Estimated
Thu 05:07:00 PM 0.1653 21.1033 345° North  Level Estimated
Thu 05:08:00 PM 0.2884 21.0692 345° North  Level Estimated
Thu 05:09:00 PM 0.4115 21.0350 345° North  Level Estimated
Thu 05:10:00 PM 0.5347 21.0009 345° North  Level Estimated
Thu 05:11:00 PM 0.6578 20.9668 345° North  Level Estimated
Thu 05:12:00 PM 0.7809 20.9326 345° North  Level Estimated
Thu 05:13:00 PM 0.9041 20.8985 345° North  Level Estimated
Thu 05:14:00 PM 1.0272 20.8644 345° North  Level Estimated
Thu 05:15:00 PM 1.1503 20.8303 345° North  Level Estimated
Thu 05:16:00 PM 1.2735 20.7961 345° North  Level Estimated
Thu 05:17:00 PM 1.3966 20.7620 345° North  Level Estimated
Thu 05:18:00 PM 1.5197 20.7278 345° North  Level Estimated
Thu 05:19:00 PM 1.6428 20.6937 345° North  Level Estimated
Thu 05:20:00 PM 1.7659 20.6595 345° North  Level Estimated
Thu 05:21:00 PM 1.8891 20.6254 345° North  Level Estimated
Thu 05:22:00 PM 2.0122 20.5912 345° North  Level Estimated
Thu 05:23:00 PM 2.1353 20.5571 345° North  Level Estimated
Thu 05:24:00 PM 2.2584 20.5229 344° North  Level Estimated
Thu 05:25:00 PM 2.3815 20.4887 344° North  Level Estimated
Thu 05:26:00 PM 2.5047 20.4545 344° North  Level Estimated
Thu 05:27:00 PM 2.6278 20.4203 344° North  Level Estimated
Thu 05:28:00 PM 2.7509 20.3861 344° North  Level Estimated
Thu 05:29:00 PM 2.8740 20.3519 344° North  Level Estimated
Thu 05:30:00 PM 2.9971 20.3177 344° North  Level Estimated
Thu 05:31:00 PM 3.1202 20.2835 344° North  Level Estimated
Thu 05:32:00 PM 3.2434 20.2493 344° North  Level Estimated
Thu 05:33:00 PM 3.3665 20.2150 344° North  Level Estimated
Thu 05:34:00 PM 3.4896 20.1808 344° North  Level Estimated
Thu 05:35:00 PM 3.6127 20.1465 344° North  Level Estimated
Thu 05:36:00 PM 3.7358 20.1123 344° North  Level Estimated
Thu 05:37:00 PM 3.8589 20.0780 344° North  Level Estimated
Thu 05:38:00 PM 3.9820 20.0437 344° North  Level Estimated
Thu 05:39:00 PM 4.1051 20.0094 344° North  Level Estimated
Thu 05:40:00 PM 4.2282 19.9751 344° North  Level Estimated
Thu 05:41:00 PM 4.3513 19.9408 344° North  Level Estimated
Thu 05:42:00 PM 4.4744 19.9065 344° North  Level Estimated
Thu 05:43:00 PM 4.5975 19.8722 344° North  Level Estimated
Thu 05:44:00 PM 4.7206 19.8378 344° North  Level Estimated
Thu 05:45:00 PM 4.8437 19.8034 344° North  Level Estimated
Thu 05:46:00 PM 4.9668 19.7691 344° North  Level Estimated
Thu 05:47:00 PM 5.0899 19.7347 344° North  Level Estimated
Thu 05:48:00 PM 5.2130 19.7003 344° North  Level Estimated
Thu 05:49:00 PM 5.3361 19.6659 344° North  Level Estimated
Thu 05:50:00 PM 5.4592 19.6315 344° North  Level Estimated
Thu 05:51:00 PM 5.5822 19.5970 344° North  Level Estimated
Thu 05:52:00 PM 5.7053 19.5625 344° North  Level Estimated
Thu 05:53:00 PM 5.8284 19.5281 344° North  Level Estimated
Thu 05:54:00 PM 5.9515 19.4936 344° North  Level Estimated
Thu 05:55:00 PM 6.0746 19.4591 344° North  Level Estimated
Thu 05:56:00 PM 6.1976 19.4246 344° North  Level Estimated
Thu 05:57:00 PM 6.3207 19.3900 344° North  Level Estimated
Thu 05:58:00 PM 6.4438 19.3555 344° North  Level Estimated
Thu 05:59:00 PM 6.5668 19.3209 344° North  Level Estimated
Thu 06:00:00 PM 6.6899 19.2863 344° North  Level Estimated
Thu 06:01:00 PM 6.8130 19.2517 344° North  Level Estimated
Thu 06:02:00 PM 6.9360 19.2171 344° North  Level Estimated
Thu 06:03:00 PM 7.0591 19.1825 344° North  Level Estimated
Thu 06:04:00 PM 7.1821 19.1478 344° North  Level Estimated
Thu 06:05:00 PM 7.3052 19.1132 344° North  Level Estimated
Thu 06:06:00 PM 7.4282 19.0785 344° North  Level Estimated
Thu 06:07:00 PM 7.5513 19.0438 344° North  Level Estimated
Thu 06:08:00 PM 7.6743 19.0090 344° North  Level Estimated
Thu 06:09:00 PM 7.7974 18.9743 344° North  Level Estimated
Thu 06:10:00 PM 7.9204 18.9395 344° North  Level Estimated
Thu 06:11:00 PM 8.0434 18.9047 344° North  Level Estimated
Thu 06:12:00 PM 8.1665 18.8699 344° North  Level Estimated
Thu 06:13:00 PM 8.2895 18.8351 344° North  Level Estimated
Thu 06:14:00 PM 8.4125 18.8002 344° North  Level Estimated
Thu 06:15:00 PM 8.5355 18.7653 344° North  Level Estimated
Thu 06:16:00 PM 8.6586 18.7304 344° North  Level Estimated
Thu 06:17:00 PM 8.7816 18.6955 344° North  Level Estimated
Thu 06:18:00 PM 8.9046 18.6605 344° North  Level Estimated
Thu 06:19:00 PM 9.0276 18.6256 344° North  Level Estimated
Thu 06:20:00 PM 9.1506 18.5906 344° North  Level Estimated
Thu 06:21:00 PM 9.2736 18.5556 344° North  Level Estimated
Thu 06:22:00 PM 9.3966 18.5205 344° North  Level Estimated
Thu 06:23:00 PM 9.5196 18.4855 344° North  Level Estimated
Thu 06:24:00 PM 9.6426 18.4504 344° North  Level Estimated
Thu 06:25:00 PM 9.7656 18.4152 344° North  Level Estimated
Thu 06:26:00 PM 9.8886 18.3801 344° North  Level Estimated
Thu 06:27:00 PM 10.0116 18.3449 344° North  Level Estimated
Thu 06:28:00 PM 10.1345 18.3097 344° North  Level Estimated
Thu 06:29:00 PM 10.2575 18.2745 344° North  Level Estimated
Thu 06:30:00 PM 10.3805 18.2392 344° North  Level Estimated
Thu 06:31:00 PM 10.5035 18.2040 344° North  Level Estimated
Thu 06:32:00 PM 10.6264 18.1686 344° North  Level Estimated
Thu 06:33:00 PM 10.7494 18.1333 344° North  Level Estimated
Thu 06:34:00 PM 10.8723 18.0979 344° North  Level Estimated
Thu 06:35:00 PM 10.9953 18.0625 344° North  Level Estimated
Thu 06:36:00 PM 11.1182 18.0271 344° North  Level Estimated
Thu 06:37:00 PM 11.2412 17.9916 344° North  Level Estimated
Thu 06:38:00 PM 11.3641 17.9562 344° North  Level Estimated
Thu 06:39:00 PM 11.4870 17.9206 344° North  Level Estimated
Thu 06:40:00 PM 11.6100 17.8851 344° North  Level Estimated
Thu 06:41:00 PM 11.7329 17.8495 344° North  Level Estimated
Thu 06:42:00 PM 11.8558 17.8139 344° North  Level Estimated
Thu 06:43:00 PM 11.9787 17.7783 344° North  Level Estimated
Thu 06:44:00 PM 12.1017 17.7426 344° North  Level Estimated
Thu 06:45:00 PM 12.2246 17.7069 344° North  Level Estimated
Thu 06:46:00 PM 12.3475 17.6711 344° North  Level Estimated
Thu 06:47:00 PM 12.4704 17.6354 344° North  Level Estimated
Thu 06:48:00 PM 12.5933 17.5996 344° North  Level Estimated
Thu 06:49:00 PM 12.7161 17.5637 344° North  Level Estimated
Thu 06:50:00 PM 12.8390 17.5278 344° North  Level Estimated
Thu 06:51:00 PM 12.9619 17.4919 344° North  Level Estimated
Thu 06:52:00 PM 13.0848 17.4560 344° North  Level Estimated
Thu 06:53:00 PM 13.2076 17.4200 344° North  Level Estimated
Thu 06:54:00 PM 13.3305 17.3840 344° North  Level Estimated
Thu 06:55:00 PM 13.4534 17.3479 344° North  Level Estimated
Thu 06:56:00 PM 13.5762 17.3118 344° North  Level Estimated
Thu 06:57:00 PM 13.6991 17.2757 344° North  Level Estimated
Thu 06:58:00 PM 13.8219 17.2395 344° North  Level Estimated
Thu 06:59:00 PM 13.9447 17.2033 344° North  Level Estimated
Thu 07:00:00 PM 14.0676 17.1671 344° North  Level Estimated
Thu 07:01:00 PM 14.1904 17.1308 344° North  Level Estimated
Thu 07:02:00 PM 14.3132 17.0945 344° North  Level Estimated
Thu 07:03:00 PM 14.4360 17.0581 344° North  Level Estimated
Thu 07:04:00 PM 14.5589 17.0217 344° North  Level Estimated
Thu 07:05:00 PM 14.6817 16.9853 344° North  Level Estimated
Thu 07:06:00 PM 14.8045 16.9488 344° North  Level Estimated
Thu 07:07:00 PM 14.9272 16.9123 344° North  Level Estimated
Thu 07:08:00 PM 15.0500 16.8757 344° North  Level Estimated
Thu 07:09:00 PM 15.1728 16.8391 344° North  Level Estimated
Thu 07:10:00 PM 15.2956 16.8024 344° North  Level Estimated
Thu 07:11:00 PM 15.4184 16.7657 344° North  Level Estimated
Thu 07:12:00 PM 15.5411 16.7290 344° North  Level Estimated
Thu 07:13:00 PM 15.6639 16.6922 344° North  Level Estimated
Thu 07:14:00 PM 15.7866 16.6554 344° North  Level Estimated
Thu 07:15:00 PM 15.9094 16.6185 344° North  Level Estimated
Thu 07:16:00 PM 16.0321 16.5816 344° North  Level Estimated
Thu 07:17:00 PM 16.1549 16.5446 344° North  Level Estimated
Thu 07:18:00 PM 16.2776 16.5076 344° North  Level Estimated
Thu 07:19:00 PM 16.4003 16.4706 344° North  Level Estimated
Thu 07:20:00 PM 16.5230 16.4335 344° North  Level Estimated
Thu 07:21:00 PM 16.6457 16.3963 344° North  Level Estimated
Thu 07:22:00 PM 16.7684 16.3591 344° North  Level Estimated
Thu 07:23:00 PM 16.8911 16.3219 344° North  Level Estimated
Thu 07:24:00 PM 17.0138 16.2846 344° North  Level Estimated
Thu 07:25:00 PM 17.1365 16.2472 344° North  Level Estimated
Thu 07:26:00 PM 17.2592 16.2099 344° North  Level Estimated
Thu 07:27:00 PM 17.3818 16.1724 344° North  Level Estimated
Thu 07:28:00 PM 17.5045 16.1349 344° North  Level Estimated
Thu 07:29:00 PM 17.6271 16.0974 344° North  Level Estimated
Thu 07:30:00 PM 17.7498 16.0598 344° North  Level Estimated
Thu 07:31:00 PM 17.8724 16.0222 344° North  Level Estimated
Thu 07:32:00 PM 17.9951 15.9845 344° North  Level Estimated
Thu 07:33:00 PM 18.1177 15.9467 344° North  Level Estimated
Thu 07:34:00 PM 18.2403 15.9089 344° North  Level Estimated
Thu 07:35:00 PM 18.3629 15.8710 344° North  Level Estimated
Thu 07:36:00 PM 18.4855 15.8331 344° North  Level Estimated
Thu 07:37:00 PM 18.6081 15.7952 344° North  Level Estimated
Thu 07:38:00 PM 18.7307 15.7571 344° North  Level Estimated
Thu 07:39:00 PM 18.8533 15.7191 344° North  Level Estimated
Thu 07:40:00 PM 18.9758 15.6810 344° North  Level Estimated
Thu 07:41:00 PM 19.0984 15.6428 344° North  Level Estimated
Thu 07:42:00 PM 19.2210 15.6045 344° North  Level Estimated
Thu 07:43:00 PM 19.3435 15.5662 344° North  Level Estimated
Thu 07:44:00 PM 19.4660 15.5279 344° North  Level Estimated
Thu 07:45:00 PM 19.5886 15.4895 344° North  Level Estimated
Thu 07:46:00 PM 19.7111 15.4510 344° North  Level Estimated
Thu 07:47:00 PM 19.8336 15.4125 344° North  Level Estimated
Thu 07:48:00 PM 19.9561 15.3739 344° North  Level Estimated
Thu 07:49:00 PM 20.0786 15.3352 343° North  Level Estimated
Thu 07:50:00 PM 20.2011 15.2965 343° North  Level Estimated
Thu 07:51:00 PM 20.3236 15.2577 343° North  Level Estimated
Thu 07:52:00 PM 20.4461 15.2189 343° North  Level Estimated
Thu 07:53:00 PM 20.5685 15.1800 343° North  Level Estimated
Thu 07:54:00 PM 20.6910 15.1411 343° North  Level Estimated
Thu 07:55:00 PM 20.8134 15.1020 343° North  Level Estimated
Thu 07:56:00 PM 20.9359 15.0630 343° North  Level Estimated
Thu 07:57:00 PM 21.0583 15.0238 343° North  Level Estimated
Thu 07:58:00 PM 21.1807 14.9846 343° North  Level Estimated
Thu 07:59:00 PM 21.3031 14.9453 343° North  Level Estimated
Thu 08:00:00 PM 21.4255 14.9060 343° North  Level Estimated
Thu 08:01:00 PM 21.5479 14.8666 343° North  Level Estimated
Thu 08:02:00 PM 21.6703 14.8271 343° North  Level Estimated
Thu 08:03:00 PM 21.7927 14.7875 343° North  Level Estimated
Thu 08:04:00 PM 21.9150 14.7479 343° North  Level Estimated
Thu 08:05:00 PM 22.0374 14.7083 343° North  Level Estimated
Thu 08:06:00 PM 22.1597 14.6685 343° North  Level Estimated
Thu 08:07:00 PM 22.2821 14.6287 343° North  Level Estimated
Thu 08:08:00 PM 22.4044 14.5888 343° North  Level Estimated
Thu 08:09:00 PM 22.5267 14.5488 343° North  Level Estimated
Thu 08:10:00 PM 22.6490 14.5088 343° North  Level Estimated
Thu 08:11:00 PM 22.7714 14.4687 343° North  Level Estimated
Thu 08:12:00 PM 22.8936 14.4285 343° North  Level Estimated
Thu 08:13:00 PM 23.0159 14.3883 343° North  Level Estimated
Thu 08:14:00 PM 23.1382 14.3480 343° North  Level Estimated
Thu 08:15:00 PM 23.2605 14.3076 343° North  Level Estimated
Thu 08:16:00 PM 23.3827 14.2671 343° North  Level Estimated
Thu 08:17:00 PM 23.5049 14.2266 343° North  Level Estimated
Thu 08:18:00 PM 23.6272 14.1860 343° North  Level Estimated
Thu 08:19:00 PM 23.7494 14.1453 343° North  Level Estimated
Thu 08:20:00 PM 23.8716 14.1045 343° North  Level Estimated
Thu 08:21:00 PM 23.9938 14.0637 343° North  Level Estimated
Thu 08:22:00 PM 24.1159 14.0227 343° North  Level Estimated
Thu 08:23:00 PM 24.2381 13.9817 343° North  Level Estimated
Thu 08:24:00 PM 24.3603 13.9407 343° North  Level Estimated
Thu 08:25:00 PM 24.4824 13.8995 343° North  Level Estimated
Thu 08:26:00 PM 24.6046 13.8583 343° North  Level Estimated
Thu 08:27:00 PM 24.7267 13.8169 343° North  Level Estimated
Thu 08:28:00 PM 24.8488 13.7755 343° North  Level Estimated
Thu 08:29:00 PM 24.9709 13.7341 343° North  Level Estimated
Thu 08:30:00 PM 25.0930 13.6925 343° North  Level Estimated
Thu 08:31:00 PM 25.2151 13.6509 343° North  Level Estimated
Thu 08:32:00 PM 25.3372 13.6091 343° North  Level Estimated
Thu 08:33:00 PM 25.4592 13.5673 343° North  Level Estimated
Thu 08:34:00 PM 25.5813 13.5254 343° North  Level Estimated
Thu 08:35:00 PM 25.7033 13.4834 343° North  Level Estimated
Thu 08:36:00 PM 25.8253 13.4414 343° North  Level Estimated
Thu 08:37:00 PM 25.9473 13.3992 343° North  Level Estimated
Thu 08:38:00 PM 26.0693 13.3569 343° North  Level Estimated
Thu 08:39:00 PM 26.1913 13.3146 343° North  Level Estimated
Thu 08:40:00 PM 26.3133 13.2722 343° North  Level Estimated
Thu 08:41:00 PM 26.4352 13.2297 343° North  Level Estimated
Thu 08:42:00 PM 26.5572 13.1871 343° North  Level Estimated
Thu 08:43:00 PM 26.6791 13.1444 343° North  Level Estimated
Thu 08:44:00 PM 26.8010 13.1016 343° North  Level Estimated
Thu 08:45:00 PM 26.9229 13.0587 343° North  Level Estimated
Thu 08:46:00 PM 27.0448 13.0158 343° North  Level Estimated
Thu 08:47:00 PM 27.1667 12.9727 343° North  Level Estimated
Thu 08:48:00 PM 27.2886 12.9296 343° North  Level Estimated
Thu 08:49:00 PM 27.4104 12.8863 343° North  Level Estimated
Thu 08:50:00 PM 27.5323 12.8429 342° North  Level Estimated
Thu 08:51:00 PM 27.6541 12.7995 342° North  Level Estimated
Thu 08:52:00 PM 27.7759 12.7560 342° North  Level Estimated
Thu 08:53:00 PM 27.8977 12.7123 342° North  Level Estimated
Thu 08:54:00 PM 28.0195 12.6686 342° North  Level Estimated
Thu 08:54:32 PM 32.2630 15.1110 342° North 40,000  Level FlightAware ADS-B
Thu 08:54:47 PM 32.2880 15.1050 349° North 513 590 40,000  Level FlightAware ADS-B
Thu 08:55:25 PM 32.3760 15.0830 348° North 515 593 40,000  Level FlightAware ADS-B
Thu 08:56:14 PM 32.4880 15.0660 353° North 519 597 40,000  Level FlightAware ADS-B
Thu 08:56:50 PM 32.5930 15.0470 351° North 522 601 40,000  Level FlightAware ADS-B
Thu 08:57:47 PM 32.7270 15.0220 351° North 524 603 40,000  Level FlightAware ADS-B
Thu 08:58:32 PM 32.8350 15.0030 352° North 523 602 40,000  Level FlightAware ADS-B
Thu 08:59:16 PM 32.9400 14.9830 351° North 524 603 40,000  Level FlightAware ADS-B
Thu 08:59:52 PM 33.0250 14.9670 351° North 525 604 40,000  Level FlightAware ADS-B
Thu 09:00:34 PM 33.1280 14.9480 351° North 524 603 40,000  Level FlightAware ADS-B
Thu 09:01:32 PM 33.2640 14.9230 351° North 525 604 40,000  Level FlightAware ADS-B
Thu 09:02:17 PM 33.3730 14.9030 351° North 524 603 40,000  Level FlightAware ADS-B
Thu 09:02:57 PM 33.4690 14.8850 351° North 522 601 40,000  Level FlightAware ADS-B
Thu 09:03:42 PM 33.5760 14.8650 351° North 520 598 40,000  Level FlightAware ADS-B
Thu 09:04:22 PM 33.6730 14.8470 351° North 518 596 40,000  Level FlightAware ADS-B
Thu 09:04:57 PM 33.7540 14.8310 351° North 517 595 40,000  Level FlightAware ADS-B
Thu 09:06:12 PM 33.9300 14.7980 351° North 519 597 40,000  Level FlightAware ADS-B
Thu 09:07:07 PM 34.0620 14.7730 351° North 520 598 40,000  Level FlightAware ADS-B
Thu 09:08:27 PM 34.2520 14.7330 350° North 512 589 40,000  Level FlightAware ADS-B
Thu 09:09:12 PM 34.3500 14.6920 341° North 499 574 40,000  Level FlightAware ADS-B
Thu 09:09:52 PM 34.4370 14.6470 337° Northwest 495 570 40,000  Level FlightAware ADS-B
Thu 09:10:37 PM 34.5310 14.5980 337° Northwest 496 571 40,000  Level FlightAware ADS-B
Thu 09:11:22 PM 34.6240 14.5490 337° Northwest 499 574 40,000  Level FlightAware ADS-B
Thu 09:11:57 PM 34.6990 14.5100 337° Northwest 500 575 40,000  Level FlightAware ADS-B
Thu 09:12:47 PM 34.8060 14.4540 337° Northwest 502 578 40,000  Level FlightAware ADS-B
Thu 09:13:27 PM 34.8930 14.4080 337° Northwest 502 578 40,000  Level FlightAware ADS-B
Thu 09:14:07 PM 34.9780 14.3630 337° Northwest 499 574 40,000  Level FlightAware ADS-B
Thu 09:14:47 PM 35.0610 14.3190 337° Northwest 498 573 40,000  Level FlightAware ADS-B
Thu 09:15:27 PM 35.1470 14.2730 336° Northwest 498 573 40,000  Level FlightAware ADS-B
Thu 09:16:12 PM 35.2420 14.2220 336° Northwest 494 568 40,000  Level FlightAware ADS-B
Thu 09:16:57 PM 35.3340 14.1740 337° Northwest 492 566 40,000  Level FlightAware ADS-B
Thu 09:17:37 PM 35.4180 14.1280 336° Northwest 491 565 40,000  Level FlightAware ADS-B
Thu 09:18:22 PM 35.5120 14.0780 337° Northwest 492 566 40,000  Level FlightAware ADS-B
Thu 09:19:02 PM 35.5960 14.0330 336° Northwest 492 566 40,000  Level FlightAware ADS-B
Thu 09:19:47 PM 35.6890 13.9830 336° Northwest 494 568 40,000  Level FlightAware ADS-B
Thu 09:20:42 PM 35.8060 13.9190 336° Northwest 497 572 40,000  Level FlightAware ADS-B
Thu 09:21:22 PM 35.8910 13.8730 336° Northwest 498 573 40,000  Level FlightAware ADS-B
Thu 09:22:07 PM 35.9810 13.8240 336° Northwest 496 571 40,000  Level FlightAware ADS-B
Thu 09:22:47 PM 36.0640 13.7790 336° Northwest 496 571 40,000  Level FlightAware ADS-B
Thu 09:23:27 PM 36.1520 13.7310 336° Northwest 496 571 40,000  Level FlightAware ADS-B
Thu 09:24:12 PM 36.2440 13.6810 336° Northwest 493 567 40,000  Level FlightAware ADS-B
Thu 09:24:52 PM 36.3310 13.6330 336° Northwest 491 565 40,000  Level FlightAware ADS-B
Thu 09:25:47 PM 36.4430 13.5710 336° Northwest 491 565 40,000  Level FlightAware ADS-B
Thu 09:26:27 PM 36.5270 13.5250 336° Northwest 492 566 40,000  Level FlightAware ADS-B
Thu 09:27:12 PM 36.6200 13.4690 334° Northwest 491 565 40,000  Level FlightAware ADS-B
Thu 09:27:57 PM 36.7070 13.4150 334° Northwest 492 566 40,000  Level FlightAware ADS-B
Thu 09:28:37 PM 36.7910 13.3640 334° Northwest 486 559 40,000  Level FlightAware ADS-B
Thu 09:29:17 PM 36.8740 13.3140 334° Northwest 483 556 40,000  Level FlightAware ADS-B
Thu 09:29:57 PM 36.9550 13.2670 335° Northwest 483 556 40,000  Level FlightAware ADS-B
Thu 09:30:37 PM 37.0310 13.2240 336° Northwest 481 554 40,000  Level FlightAware ADS-B
Thu 09:31:27 PM 37.1320 13.1650 335° Northwest 478 550 40,000  Level FlightAware ADS-B
Thu 09:32:07 PM 37.2160 13.1170 336° Northwest 479 551 40,000  Level FlightAware ADS-B
Thu 09:32:49 PM 37.2980 13.0690 335° Northwest 480 552 40,000  Level FlightAware ADS-B
Thu 09:33:27 PM 37.3780 13.0220 335° Northwest 483 556 40,000  Level FlightAware ADS-B
Thu 09:34:12 PM 37.4700 12.9690 335° Northwest 486 559 40,000  Level FlightAware ADS-B
Thu 09:34:52 PM 37.5460 12.9230 334° Northwest 492 566 40,000  Level FlightAware ADS-B
Thu 09:35:37 PM 37.6430 12.8670 335° Northwest 496 571 40,000  Level FlightAware ADS-B
Thu 09:36:22 PM 37.7380 12.8100 335° Northwest 501 577 40,000  Level FlightAware ADS-B
Thu 09:37:02 PM 37.8220 12.7610 335° Northwest 503 579 40,000  Level FlightAware ADS-B
Thu 09:37:37 PM 37.8950 12.7180 335° Northwest 506 582 40,000  Level FlightAware ADS-B
Thu 09:38:22 PM 37.9890 12.6620 335° Northwest 508 585 40,000  Level FlightAware ADS-B
Thu 09:39:08 PM 38.0930 12.6000 335° Northwest 509 586 40,000  Level FlightAware ADS-B
Thu 09:39:50 PM 38.1830 12.5460 335° Northwest 509 586 40,000  Level FlightAware ADS-B
Thu 09:40:34 PM 38.2760 12.4900 335° Northwest 505 581 40,000  Level FlightAware ADS-B
Thu 09:41:14 PM 38.3590 12.4400 335° Northwest 500 575 40,000  Level FlightAware ADS-B
Thu 09:41:54 PM 38.4430 12.3900 335° Northwest 495 570 40,000  Level FlightAware ADS-B
Thu 09:42:38 PM 38.5320 12.3360 335° Northwest 490 564 40,000  Level FlightAware ADS-B
Thu 09:43:18 PM 38.6140 12.2870 335° Northwest 489 563 40,000  Level FlightAware ADS-B
Thu 09:44:01 PM 38.7010 12.2340 335° Northwest 481 554 40,000  Level FlightAware ADS-B
Thu 09:44:41 PM 38.7810 12.1850 334° Northwest 479 551 40,000  Level FlightAware ADS-B
Thu 09:45:21 PM 38.8620 12.1350 334° Northwest 484 557 40,000  Level FlightAware ADS-B
Thu 09:46:06 PM 38.9530 12.0800 335° Northwest 481 554 40,000  Level FlightAware ADS-B
Thu 09:46:51 PM 39.0430 12.0240 334° Northwest 479 551 40,000  Level FlightAware ADS-B
Thu 09:47:26 PM 39.1150 11.9800 335° Northwest 477 549 40,000  Level FlightAware ADS-B
Thu 09:48:16 PM 39.2150 11.9190 335° Northwest 479 551 40,000  Level FlightAware ADS-B
Thu 09:48:57 PM 39.2940 11.8690 334° Northwest 480 552 40,000  Level FlightAware ADS-B
Thu 09:49:36 PM 39.3730 11.8210 335° Northwest 479 551 40,000  Level FlightAware ADS-B
Thu 09:50:16 PM 39.4520 11.7710 334° Northwest 480 552 40,000  Level FlightAware ADS-B
Thu 09:50:57 PM 39.5350 11.7200 335° Northwest 483 556 40,000  Level FlightAware ADS-B
Thu 09:51:46 PM 39.6340 11.6580 334° Northwest 483 556 40,000  Level FlightAware ADS-B
Thu 09:52:26 PM 39.7140 11.6080 334° Northwest 485 558 40,000  Level FlightAware ADS-B
Thu 09:53:06 PM 39.7970 11.5550 334° Northwest 484 557 40,000  Level FlightAware ADS-B
Thu 09:53:46 PM 39.8780 11.5040 334° Northwest 484 557 40,000  Level FlightAware ADS-B
Thu 09:54:31 PM 39.9660 11.4480 334° Northwest 487 560 40,000  Level FlightAware ADS-B
Thu 09:55:11 PM 40.0480 11.3960 334° Northwest 482 555 40,000  Level FlightAware ADS-B
Thu 09:55:52 PM 40.1360 11.3410 334° Northwest 491 565 40,000  Level FlightAware ADS-B
Thu 09:56:38 PM 40.2290 11.2810 334° Northwest 487 560 40,000  Level FlightAware ADS-B
Thu 09:57:20 PM 40.3110 11.2290 334° Northwest 484 557 40,000  Level FlightAware ADS-B
Thu 09:58:04 PM 40.4020 11.1700 334° Northwest 487 560 40,000  Level FlightAware ADS-B
Thu 09:58:42 PM 40.4800 11.1200 334° Northwest 488 562 40,000  Level FlightAware ADS-B
Thu 09:59:24 PM 40.5640 11.0660 334° Northwest 486 559 40,000  Level FlightAware ADS-B
Thu 10:02:00 PM 40.8417 10.8307 327° Northwest  Level Estimated
Thu 10:02:04 PM 40.8560 10.8770 327° Northwest 487 560 40,000  Level FlightAware ADS-B
Thu 10:03:47 PM 41.0880 10.7240 334° Northwest 489 563 40,000  Level FlightAware ADS-B
Thu 10:04:30 PM 41.1680 10.6720 334° Northwest 487 560 40,000  Level FlightAware ADS-B
Thu 10:05:18 PM 41.2800 10.5980 334° Northwest 488 562 40,000  Level FlightAware ADS-B
Thu 10:06:06 PM 41.3760 10.5340 333° Northwest 487 560 40,000  Level FlightAware ADS-B
Thu 10:06:50 PM 41.4650 10.4750 334° Northwest 486 559 40,000  Level FlightAware ADS-B
Thu 10:07:29 PM 41.5410 10.4240 333° Northwest 484 557 40,000  Level FlightAware ADS-B
Thu 10:08:13 PM 41.6290 10.3660 334° Northwest 484 557 40,000  Level FlightAware ADS-B
Thu 10:08:55 PM 41.7140 10.3080 333° Northwest 484 557 40,000  Level FlightAware ADS-B
Thu 10:09:37 PM 41.7990 10.2520 334° Northwest 484 557 40,000  Level FlightAware ADS-B
Thu 10:10:15 PM 41.8750 10.2000 333° Northwest 482 555 40,000  Level FlightAware ADS-B
Thu 10:10:55 PM 41.9550 10.1460 333° Northwest 486 559 40,000  Level FlightAware ADS-B
Thu 10:12:16 PM 42.1110 10.0400 333° Northwest 485 558 40,000  Level FlightAware ADS-B
Thu 10:13:01 PM 42.2050 9.9760 333° Northwest 487 560 40,000  Level FlightAware ADS-B
Thu 10:13:40 PM 42.2830 9.9220 333° Northwest 488 562 40,000  Level FlightAware ADS-B
Thu 10:14:16 PM 42.3550 9.8730 333° Northwest 488 562 40,000  Level FlightAware ADS-B
Thu 10:15:01 PM 42.4490 9.8080 333° Northwest 488 562 40,000  Level FlightAware ADS-B
Thu 10:15:47 PM 42.5410 9.7450 333° Northwest 487 560 40,000  Level FlightAware ADS-B
Thu 10:16:27 PM 42.6210 9.6890 333° Northwest 486 559 40,000  Level FlightAware ADS-B
Thu 10:17:24 PM 42.7360 9.6090 333° Northwest 485 558 40,000  Level FlightAware ADS-B
Thu 10:18:20 PM 42.8480 9.5310 333° Northwest 484 557 40,000  Level FlightAware ADS-B
Thu 10:19:00 PM 42.9280 9.4750 333° Northwest 486 559 40,000  Level FlightAware ADS-B
Thu 10:19:45 PM 43.0160 9.4130 333° Northwest 485 558 40,000  Level FlightAware ADS-B
Thu 10:20:21 PM 43.0880 9.3620 333° Northwest 483 556 40,000  Level FlightAware ADS-B
Thu 10:21:03 PM 43.1720 9.3030 333° Northwest 485 558 40,000  Level FlightAware ADS-B
Thu 10:21:53 PM 43.2720 9.2320 333° Northwest 485 558 40,000  Level FlightAware ADS-B
Thu 10:22:31 PM 43.3480 9.1780 333° Northwest 483 556 40,000  Level FlightAware ADS-B
Thu 10:23:08 PM 43.4200 9.1260 332° Northwest 481 554 40,000  Level FlightAware ADS-B
Thu 10:23:58 PM 43.5190 9.0550 333° Northwest 479 551 40,000  Level FlightAware ADS-B
Thu 10:24:38 PM 43.5980 8.9990 333° Northwest 478 550 40,000  Level FlightAware ADS-B
Thu 10:25:21 PM 43.6800 8.9390 332° Northwest 476 548 40,000  Level FlightAware ADS-B
Thu 10:26:01 PM 43.7590 8.8820 332° Northwest 477 549 40,000  Level FlightAware ADS-B
Thu 10:26:44 PM 43.8400 8.8230 332° Northwest 476 548 40,000  Level FlightAware ADS-B
Thu 10:27:25 PM 43.9230 8.7630 332° Northwest 477 549 40,000  Level FlightAware ADS-B
Thu 10:28:07 PM 44.0060 8.7030 333° Northwest 478 550 40,000  Level FlightAware ADS-B
Thu 10:28:50 PM 44.0890 8.6410 332° Northwest 478 550 40,000  Level FlightAware ADS-B
Thu 10:29:34 PM 44.1750 8.5780 332° Northwest 480 552 40,000  Level FlightAware ADS-B
Thu 10:30:30 PM 44.2820 8.5000 332° Northwest 484 557 40,000  Level FlightAware ADS-B
Thu 10:31:10 PM 44.3610 8.4410 332° Northwest 484 557 40,000  Level FlightAware ADS-B
Thu 10:31:52 PM 44.4470 8.3770 332° Northwest 481 554 40,000  Level FlightAware ADS-B
Thu 10:32:34 PM 44.5310 8.3150 332° Northwest 486 559 40,000  Level FlightAware ADS-B
Thu 10:33:18 PM 44.6180 8.2500 332° Northwest 491 565 40,000  Level FlightAware ADS-B
Thu 10:33:58 PM 44.6980 8.1900 332° Northwest 493 567 40,000  Level FlightAware ADS-B
Thu 10:34:40 PM 44.7820 8.1260 332° Northwest 493 567 40,000  Level FlightAware ADS-B
Thu 10:35:22 PM 44.8670 8.0620 332° Northwest 493 567 40,000  Level FlightAware ADS-B
Thu 10:36:04 PM 44.9520 7.9980 332° Northwest 490 564 40,000  Level FlightAware ADS-B
Thu 10:36:48 PM 45.0380 7.9320 332° Northwest 487 560 40,000  Level FlightAware ADS-B
Thu 10:37:28 PM 45.1180 7.8720 332° Northwest 486 559 40,000  Level FlightAware ADS-B
Thu 10:38:08 PM 45.1880 7.7950 322° Northwest 482 555 40,000  Level FlightAware ADS-B
Thu 10:38:52 PM 45.2610 7.7040 319° Northwest 482 555 40,000  Level FlightAware ADS-B
Thu 10:39:36 PM 45.3380 7.6110 320° Northwest 486 559 40,000  Level FlightAware ADS-B
Thu 10:40:18 PM 45.4080 7.5250 319° Northwest 488 562 40,000  Level FlightAware ADS-B
Thu 10:40:58 PM 45.4760 7.4400 319° Northwest 488 562 40,000  Level FlightAware ADS-B
Thu 10:41:38 PM 45.5440 7.3550 319° Northwest 491 565 40,000  Level FlightAware ADS-B
Thu 10:42:24 PM 45.6240 7.2570 319° Northwest 490 564 40,000  Level FlightAware ADS-B
Thu 10:43:04 PM 45.6920 7.1720 319° Northwest 486 559 40,000  Level FlightAware ADS-B
Thu 10:43:48 PM 45.7630 7.0830 319° Northwest 478 550 40,000  Level FlightAware ADS-B
Thu 10:44:28 PM 45.8310 6.9980 319° Northwest 474 545 40,000  Level FlightAware ADS-B
Thu 10:44:56 PM 45.8770 6.9400 319° Northwest 470 541 40,000  Level FlightAware ADS-B
Thu 10:47:00 PM 46.0722 6.6878 318° Northwest  Level Estimated
Thu 10:48:00 PM 46.1664 6.5651 318° Northwest  Level Estimated
Thu 10:48:06 PM 46.1460 6.5980 318° Northwest 473 544 40,000  Level FlightAware ADS-B
Thu 10:48:52 PM 46.2620 6.4490 318° Northwest 473 544 40,000  Level FlightAware ADS-B
Thu 10:49:36 PM 46.3340 6.3560 318° Northwest 472 543 40,000  Level FlightAware ADS-B
Thu 10:50:30 PM 46.4190 6.2460 318° Northwest 470 541 40,000  Level FlightAware ADS-B
Thu 10:51:06 PM 46.4710 6.1790 318° Northwest 463 533 40,000 -180 Level FlightAware ADS-B
Thu 10:52:10 PM 46.5830 6.0330 318° Northwest 470 541 39,700 -519 Descending FlightAware ADS-B
Thu 10:52:50 PM 46.6470 5.9490 318° Northwest 466 536 39,100 -929 Descending FlightAware ADS-B
Thu 10:53:34 PM 46.7230 5.8660 323° Northwest 460 529 38,400 -786 Descending FlightAware ADS-B
Thu 10:54:14 PM 46.7890 5.7940 323° Northwest 461 531 38,000 -293 Descending FlightAware ADS-B
Thu 10:54:56 PM 46.8600 5.7130 322° Northwest 461 531 38,000  Level FlightAware ADS-B
Thu 10:55:34 PM 46.9250 5.6400 323° Northwest 459 528 38,000  Level FlightAware ADS-B
Thu 10:56:18 PM 46.9970 5.5580 322° Northwest 458 527 38,000  Level FlightAware ADS-B
Thu 10:56:58 PM 47.0650 5.4800 322° Northwest 456 525 38,000  Level FlightAware ADS-B
Thu 10:57:42 PM 47.1360 5.3990 322° Northwest 454 522 38,000  Level FlightAware ADS-B
Thu 10:58:28 PM 47.2140 5.3100 322° Northwest 454 522 38,000 -349 Level FlightAware ADS-B
Thu 10:59:08 PM 47.2780 5.2360 322° Northwest 455 524 37,500 -1,071 Descending FlightAware ADS-B
Thu 10:59:52 PM 47.3510 5.1510 322° Northwest 453 521 36,500 -1,776 Descending FlightAware ADS-B
Thu 11:02:00 PM 47.5413 4.8660 315° West  Level Estimated
Thu 11:03:00 PM 47.6302 4.7318 315° West  Level Estimated
Thu 11:03:18 PM 47.6740 4.7730 315° West 425 489 30,100  Level FlightAware ADS-B
Thu 11:04:01 PM 47.7420 4.6940 322° Northwest 416 479 28,800 -1,793 Descending FlightAware ADS-B
Thu 11:04:45 PM 47.8070 4.6170 322° Northwest 407 468 27,500 -1,765 Descending FlightAware ADS-B
Thu 11:05:26 PM 47.8670 4.5460 322° Northwest 401 461 26,300 -1,778 Descending FlightAware ADS-B
Thu 11:06:06 PM 47.9240 4.4780 321° Northwest 399 459 25,100 -1,823 Descending FlightAware ADS-B
Thu 11:06:45 PM 47.9790 4.4120 321° Northwest 393 452 23,900 -1,765 Descending FlightAware ADS-B
Thu 11:07:31 PM 48.0450 4.3330 321° Northwest 382 440 22,600 -1,685 Descending FlightAware ADS-B
Thu 11:08:14 PM 48.1020 4.2640 321° Northwest 375 432 21,400 -1,694 Descending FlightAware ADS-B
Thu 11:08:56 PM 48.1580 4.1960 321° Northwest 371 427 20,200 -1,630 Descending FlightAware ADS-B
Thu 11:09:35 PM 48.2110 4.1330 322° Northwest 357 411 19,200 -1,948 Descending FlightAware ADS-B
Thu 11:10:13 PM 48.2600 4.0730 321° Northwest 364 419 17,700 -2,096 Descending FlightAware ADS-B
Thu 11:10:58 PM 48.3180 4.0030 321° Northwest 359 413 16,300 -1,906 Descending FlightAware ADS-B
Thu 11:11:38 PM 48.3690 3.9400 321° Northwest 355 409 15,000 -1,835 Descending FlightAware ADS-B
Thu 11:12:23 PM 48.4260 3.8720 322° Northwest 347 399 13,700 -2,047 Descending FlightAware ADS-B
Thu 11:13:03 PM 48.4760 3.8100 321° Northwest 353 406 12,100 -1,841 Descending FlightAware ADS-B
Thu 11:13:51 PM 48.5360 3.7350 320° Northwest 353 406 11,000 -767 Descending FlightAware ADS-B
Thu 11:14:29 PM 48.5720 3.6550 304° West 348 400 11,000 -320 Level FlightAware ADS-B
Thu 11:15:06 PM 48.6020 3.5850 303° West 323 372 10,600 -632 Descending FlightAware ADS-B
Thu 11:15:26 PM 48.6240 3.5530 316° Northwest 308 354 10,400 -500 Descending FlightAware ADS-B
Thu 11:16:06 PM 48.6700 3.5140 331° Northwest 285 328 10,100 -618 Descending FlightAware ADS-B
Thu 11:16:34 PM 48.7010 3.4860 329° Northwest 278 320 9,700 -947 Descending FlightAware ADS-B
Thu 11:17:03 PM 48.7330 3.4580 330° Northwest 276 318 9,200 -1,053 Descending FlightAware ADS-B
Thu 11:17:31 PM 48.7660 3.4300 331° Northwest 270 311 8,700 -1,067 Descending FlightAware ADS-B
Thu 11:17:48 PM 48.7840 3.4150 331° Northwest 269 310 8,400 -1,200 Descending FlightAware ADS-B
Thu 11:18:16 PM 48.8110 3.3830 322° Northwest 265 305 7,800 -1,286 Descending FlightAware ADS-B
Thu 11:18:44 PM 48.8360 3.3460 316° Northwest 263 303 7,200 -1,200 Descending FlightAware ADS-B
Thu 11:18:56 PM 48.8450 3.3330 316° Northwest 263 303 7,000 -1,263 Descending FlightAware ADS-B
Thu 11:19:22 PM 48.8690 3.2990 317° Northwest 262 302 6,400 -1,286 Descending FlightAware ADS-B
Thu 11:19:38 PM 48.8830 3.2780 315° West 259 298 6,100 -1,200 Descending FlightAware ADS-B
Thu 11:20:07 PM 48.9080 3.2420 317° Northwest 254 292 5,500 -1,241 Descending FlightAware ADS-B
Thu 11:20:36 PM 48.9310 3.2040 313° West 254 292 4,900 -1,263 Descending FlightAware ADS-B
Thu 11:21:04 PM 48.9490 3.1640 304° West 254 292 4,300 -1,231 Descending FlightAware ADS-B
Thu 11:21:15 PM 48.9570 3.1470 306° West 253 291 4,100 -750 Descending FlightAware ADS-B
Thu 11:21:44 PM 48.9770 3.1060 307° West 241 277 3,800 -400 Descending FlightAware ADS-B
Thu 11:22:00 PM 48.9870 3.0850 306° West 227 261 3,800  Level FlightAware ADS-B
Thu 11:22:27 PM 49.0040 3.0490 306° West 222 255 3,800  Level FlightAware ADS-B
Thu 11:22:57 PM 49.0150 3.0080 292° West 205 236 3,800  Level FlightAware ADS-B
Thu 11:23:07 PM 49.0150 2.9930 270° West 195 224 3,800  Level FlightAware ADS-B
Thu 11:23:37 PM 49.0140 2.9550 268° West 179 206 3,800  Level FlightAware ADS-B
Thu 11:24:05 PM 49.0120 2.9200 265° West 180 207 3,800  Level FlightAware ADS-B
Thu 11:24:21 PM 49.0100 2.9000 261° West 178 205 3,800 -273 Level FlightAware ADS-B
Thu 11:24:49 PM 49.0090 2.8650 268° West 174 200 3,600 -679 Descending FlightAware ADS-B
Thu 11:25:14 PM 49.0070 2.8340 264° West 181 208 3,200 -1,024 Descending FlightAware ADS-B
Thu 11:25:30 PM 49.0060 2.8140 266° West 181 208 2,900 -1,143 Descending FlightAware ADS-B
Thu 11:25:56 PM 49.0040 2.7810 265° West 177 204 2,400 -1,000 Descending FlightAware ADS-B
Thu 11:26:12 PM 49.0030 2.7610 266° West 175 201 2,200 -923 Descending FlightAware ADS-B
Thu 11:26:35 PM 49.0020 2.7340 267° West 166 191 1,800 -941 Descending FlightAware ADS-B
Thu 11:27:03 PM 49.0000 2.7030 264° West 143 165 1,400 -766 Descending FlightAware ADS-B
Thu 11:27:22 PM 48.9990 2.6850 265° West 134 154 1,200 -638 Descending FlightAware ADS-B
Thu 11:27:50 PM 48.9980 2.6590 267° West 130 150 900 -655 Descending FlightAware ADS-B
Thu 11:28:17 PM 48.9970 2.6340 267° West 127 146 600 -692 Descending FlightAware ADS-B
Thu 11:28:42 PM 48.9950 2.6140 261° West 129 148 300 -612 Descending FlightAware ADS-B
Thu 11:29:06 PM 48.9940 2.5930 266° West 130 150 100 -500 Descending FlightAware ADS-B
Thu 11:29:26 PM 48.9940 2.5780 270° West 57 66 -300 Descending FlightAware ADS-B
Thu 11:32:00 PM 49.0128 2.5500 316° Northwest  Level Estimated
Thu 11:33:00 PM 49.0128 2.5500 180° South  Level Estimated
Thu 11:34:00 PM 49.0128 2.5500 180° South  Level Estimated
Thu 11:35:00 PM 49.0128 2.5500 180° South  Level Estimated
Thu 11:36:00 PM 49.0128 2.5500 180° South  Level Estimated
Thu 11:37:00 PM 49.0128 2.5500 180° South  Level Estimated
Thu 11:38:00 PM 49.0128 2.5500 180° South  Level Estimated
Thu 11:39:00 PM 49.0128 2.5500 180° South  Level Estimated
Thu 11:40:00 PM 49.0128 2.5500 180° South  Level Estimated
Thu 11:41:00 PM 49.0128 2.5500 180° South  Level Estimated
Thu 11:42:00 PM 49.0128 2.5500 180° South  Level Estimated
Thu 11:43:00 PM 49.0128 2.5500 180° South  Level Estimated
Thu 11:44:00 PM 49.0128 2.5500 180° South  Level Estimated
Thu 11:45:00 PM 49.0128 2.5500 180° South  Level Estimated

Login

Don't have an account? Register now (free) for customized features, flight alerts, and more!